createdAt,value
2023-02-20T00:01:28.945Z,99166.63
2023-02-20T00:04:30.493Z,99164.84
2023-02-20T00:07:32.078Z,99160.47
2023-02-20T00:10:34.404Z,99161.34
2023-02-20T00:13:36.407Z,99160.50
2023-02-20T00:16:39.570Z,99166.69
2023-02-20T00:19:41.430Z,99161.44
2023-02-20T00:22:43.423Z,99158.84
2023-02-20T00:25:45.195Z,99167.66
2023-02-20T00:28:46.937Z,99172.94
2023-02-20T00:31:54.556Z,99170.31
2023-02-20T00:34:56.225Z,99150.91
2023-02-20T00:37:57.862Z,99168.56
2023-02-20T00:40:59.387Z,99158.84
2023-02-20T00:44:01.032Z,99159.75
2023-02-20T00:47:03.998Z,99151.81
2023-02-20T00:50:06.697Z,99137.75
2023-02-20T00:53:08.402Z,99139.53
2023-02-20T00:56:10.317Z,99130.75
2023-02-20T00:59:12.171Z,99129.88
2023-02-20T01:02:15.601Z,99128.91
2023-02-20T01:05:17.208Z,99121.94
2023-02-20T01:08:18.857Z,99114.91
2023-02-20T01:11:20.625Z,99114.03
2023-02-20T01:14:22.517Z,99094.66
2023-02-20T01:17:25.428Z,99099.03
2023-02-20T01:20:27.121Z,99097.34
2023-02-20T01:23:29.578Z,99095.56
2023-02-20T01:26:31.235Z,99101.72
2023-02-20T01:29:32.765Z,99102.59
2023-02-20T01:32:35.762Z,99085.84
2023-02-20T01:35:37.529Z,99084.97
2023-02-20T01:38:40.187Z,99092.03
2023-02-20T01:41:41.804Z,99087.63
2023-02-20T01:44:43.627Z,99078.81
2023-02-20T01:47:46.622Z,99082.34
2023-02-20T01:50:50.978Z,99066.47
2023-02-20T01:53:52.646Z,99069.13
2023-02-20T01:56:57.148Z,99047.09
2023-02-20T02:00:02.789Z,99051.50
2023-02-20T02:03:07.690Z,99042.72
2023-02-20T02:06:11.653Z,99033.94
2023-02-20T02:09:19.847Z,99025.97
2023-02-20T02:12:23.951Z,99027.75
2023-02-20T02:15:25.835Z,99007.47
2023-02-20T02:18:34.770Z,99003.06
2023-02-20T02:22:04.597Z,99007.47
2023-02-20T02:25:17.057Z,99010.09
2023-02-20T02:28:32.470Z,99001.28
2023-02-20T02:31:46.175Z,99000.41
2023-02-20T02:35:09.484Z,98985.41
2023-02-20T02:38:17.335Z,98997.78
2023-02-20T02:41:22.101Z,98991.63
2023-02-20T02:44:30.253Z,98990.84
2023-02-20T02:47:35.447Z,98999.66
2023-02-20T02:50:38.980Z,98990.84
2023-02-20T02:54:05.214Z,98984.66
2023-02-20T02:57:19.777Z,98970.59
2023-02-20T03:00:23.396Z,98955.63
2023-02-20T03:03:27.656Z,98957.41
2023-02-20T03:06:35.665Z,98959.16
2023-02-20T03:09:40.706Z,98949.47
2023-02-20T03:12:45.644Z,98950.34
2023-02-20T03:15:51.124Z,98943.28
2023-02-20T03:18:56.498Z,98931.81
2023-02-20T03:21:58.371Z,98931.81
2023-02-20T03:25:03.966Z,98928.25
2023-02-20T03:28:10.293Z,98914.97
2023-02-20T03:31:14.725Z,98921.09
2023-02-20T03:34:38.498Z,98927.22
2023-02-20T03:38:00.754Z,98924.56
2023-02-20T03:41:23.824Z,98917.44
2023-02-20T03:44:27.248Z,98920.00
2023-02-20T03:47:30.523Z,98915.59
2023-02-20T03:50:50.915Z,98912.94
2023-02-20T03:53:53.843Z,98910.25
2023-02-20T03:57:01.135Z,98907.59
2023-02-20T04:00:04.672Z,98901.47
2023-02-20T04:03:18.933Z,98921.63
2023-02-20T04:06:25.664Z,98910.97
2023-02-20T04:09:30.971Z,98910.94
2023-02-20T04:12:37.129Z,98913.44
2023-02-20T04:15:38.952Z,98911.63
2023-02-20T04:18:41.078Z,98920.41
2023-02-20T04:21:44.460Z,98910.53
2023-02-20T04:24:49.114Z,98898.16
2023-02-20T04:27:52.558Z,98902.53
2023-02-20T04:30:54.639Z,98899.81
2023-02-20T04:33:56.292Z,98887.47
2023-02-20T04:37:05.829Z,98870.72
2023-02-20T04:40:08.921Z,98883.91
2023-02-20T04:43:12.433Z,98877.75
2023-02-20T04:46:15.144Z,98876.81
2023-02-20T04:49:17.297Z,98864.53
2023-02-20T04:52:24.655Z,98876.84
2023-02-20T04:55:28.830Z,98869.72
2023-02-20T04:58:37.310Z,98864.41
2023-02-20T05:01:52.242Z,98863.50
2023-02-20T05:04:53.830Z,98852.84
2023-02-20T05:07:55.893Z,98849.19
2023-02-20T05:10:57.440Z,98846.41
2023-02-20T05:14:00.411Z,98834.94
2023-02-20T05:17:02.199Z,98825.22
2023-02-20T05:20:04.295Z,98835.91
2023-02-20T05:23:06.002Z,98831.47
2023-02-20T05:26:09.238Z,98828.81
2023-02-20T05:29:13.664Z,98817.38
2023-02-20T05:32:16.769Z,98813.84
2023-02-20T05:35:18.334Z,98818.16
2023-02-20T05:38:20.138Z,98823.41
2023-02-20T05:41:21.832Z,98811.03
2023-02-20T05:44:24.751Z,98804.00
2023-02-20T05:47:26.271Z,98802.09
2023-02-20T05:50:27.943Z,98790.63
2023-02-20T05:53:33.130Z,98784.44
2023-02-20T05:56:34.955Z,98784.41
2023-02-20T05:59:37.890Z,98784.50
2023-02-20T06:02:39.527Z,98787.19
2023-02-20T06:05:41.056Z,98770.44
2023-02-20T06:08:43.094Z,98778.28
2023-02-20T06:11:49.407Z,98772.09
2023-02-20T06:14:52.424Z,98775.69
2023-02-20T06:17:54.095Z,98763.28
2023-02-20T06:20:55.865Z,98761.56
2023-02-20T06:23:57.654Z,98753.63
2023-02-20T06:27:01.967Z,98756.38
2023-02-20T06:30:05.772Z,98758.94
2023-02-20T06:33:07.496Z,98761.66
2023-02-20T06:36:19.062Z,98764.31
2023-02-20T06:39:20.635Z,98755.47
2023-02-20T06:42:22.214Z,98746.66
2023-02-20T06:45:25.270Z,98758.09
2023-02-20T06:48:26.991Z,98751.00
2023-02-20T06:51:29.115Z,98740.28
2023-02-20T06:54:30.680Z,98748.22
2023-02-20T06:57:32.934Z,98741.97
2023-02-20T07:00:36.584Z,98743.75
2023-02-20T07:03:38.315Z,98742.88
2023-02-20T07:06:39.929Z,98750.78
2023-02-20T07:09:44.279Z,98761.38
2023-02-20T07:12:46.217Z,98772.00
2023-02-20T07:15:49.409Z,98784.31
2023-02-20T07:18:50.991Z,98788.75
2023-02-20T07:21:52.714Z,98792.25
2023-02-20T07:24:54.404Z,98789.53
2023-02-20T07:27:56.062Z,98783.38
2023-02-20T07:30:59.152Z,98772.78
2023-02-20T07:34:00.814Z,98781.66
2023-02-20T07:37:09.203Z,98766.69
2023-02-20T07:40:12.271Z,98767.63
2023-02-20T07:43:14.010Z,98764.19
2023-02-20T07:46:20.266Z,98761.63
2023-02-20T07:49:22.183Z,98772.16
2023-02-20T07:52:24.590Z,98772.16
2023-02-20T07:55:26.226Z,98772.16
2023-02-20T07:58:30.965Z,98778.38
2023-02-20T08:01:33.942Z,98766.94
2023-02-20T08:04:35.588Z,98796.03
2023-02-20T08:07:37.346Z,98804.88
2023-02-20T08:10:38.943Z,98808.41
2023-02-20T08:13:42.157Z,98810.22
2023-02-20T08:16:45.066Z,98817.28
2023-02-20T08:19:47.199Z,98804.22
2023-02-20T08:22:49.646Z,98808.66
2023-02-20T08:25:51.997Z,98796.34
2023-02-20T08:28:54.203Z,98792.00
2023-02-20T08:31:57.244Z,98787.63
2023-02-20T08:34:58.863Z,98811.41
2023-02-20T08:38:02.730Z,98786.72
2023-02-20T08:41:06.836Z,98784.91
2023-02-20T08:44:08.610Z,98780.53
2023-02-20T08:47:11.578Z,98782.28
2023-02-20T08:50:13.256Z,98797.28
2023-02-20T08:53:15.126Z,98793.75
2023-02-20T08:56:18.079Z,98777.91
2023-02-20T08:59:19.749Z,98770.03
2023-02-20T09:02:29.120Z,98772.66
2023-02-20T09:05:30.728Z,98761.16
2023-02-20T09:08:32.325Z,98768.25
2023-02-20T09:11:34.085Z,98775.28
2023-02-20T09:14:36.112Z,98770.84
2023-02-20T09:17:39.339Z,98768.13
2023-02-20T09:20:41.318Z,98774.28
2023-02-20T09:23:43.068Z,98781.44
2023-02-20T09:26:44.634Z,98769.19
2023-02-20T09:29:47.545Z,98770.97
2023-02-20T09:32:50.890Z,98758.72
2023-02-20T09:35:54.731Z,98757.88
2023-02-20T09:38:56.599Z,98765.91
2023-02-20T09:42:05.396Z,98768.53
2023-02-20T09:45:10.262Z,98749.25
2023-02-20T09:48:20.131Z,98753.59
2023-02-20T09:51:23.018Z,98769.41
2023-02-20T09:54:27.871Z,98753.59
2023-02-20T09:57:30.330Z,98738.59
2023-02-20T10:00:33.413Z,98749.19
2023-02-20T10:03:40.328Z,98746.53
2023-02-20T10:06:41.915Z,98741.25
2023-02-20T10:09:43.853Z,98727.09
2023-02-20T10:12:50.263Z,98732.34
2023-02-20T10:15:55.735Z,98736.75
2023-02-20T10:19:04.352Z,98741.13
2023-02-20T10:22:12.281Z,98727.06
2023-02-20T10:25:16.655Z,98726.13
2023-02-20T10:28:19.222Z,98722.56
2023-02-20T10:31:28.191Z,98718.19
2023-02-20T10:34:35.131Z,98707.59
2023-02-20T10:37:47.411Z,98713.00
2023-02-20T10:40:51.154Z,98712.97
2023-02-20T10:43:54.843Z,98697.06
2023-02-20T10:50:57.893Z,98698.78
2023-02-20T10:54:04.604Z,98706.66
2023-02-20T10:57:07.967Z,98701.22
2023-02-20T11:00:15.502Z,98709.06
2023-02-20T11:03:19.834Z,98716.22
2023-02-20T11:06:23.346Z,98706.44
2023-02-20T11:09:26.436Z,98708.94
2023-02-20T11:12:32.371Z,98721.28
2023-02-20T11:15:34.824Z,98715.97
2023-02-20T11:18:38.339Z,98709.72
2023-02-20T11:21:41.413Z,98699.09
2023-02-20T11:24:44.716Z,98719.31
2023-02-20T11:27:48.140Z,98710.47
2023-02-20T11:30:50.597Z,98713.94
2023-02-20T11:33:54.250Z,98698.91
2023-02-20T11:36:56.666Z,98693.50
2023-02-20T11:40:00.695Z,98694.41
2023-02-20T11:43:09.739Z,98699.78
2023-02-20T11:46:14.575Z,98685.78
2023-02-20T11:49:23.484Z,98672.53
2023-02-20T11:52:25.116Z,98683.13
2023-02-20T11:55:29.585Z,98684.00
2023-02-20T11:58:32.278Z,98693.66
2023-02-20T12:01:35.578Z,98679.56
2023-02-20T12:04:37.077Z,98680.41
2023-02-20T12:07:43.091Z,98676.00
2023-02-20T12:10:46.960Z,98664.47
2023-02-20T12:13:49.296Z,98675.16
2023-02-20T12:16:59.639Z,98651.28
2023-02-20T12:20:04.790Z,98651.97
2023-02-20T12:23:14.944Z,98691.66
2023-02-20T12:26:25.522Z,98628.13
2023-02-20T12:29:40.282Z,98636.91
2023-02-20T12:32:47.996Z,98644.78
2023-02-20T12:35:53.877Z,98629.72
2023-02-20T12:38:58.027Z,98639.50
2023-02-20T12:42:06.615Z,98622.72
2023-02-20T12:45:14.916Z,98605.00
2023-02-20T12:48:22.059Z,98619.09
2023-02-20T12:51:30.459Z,98624.34
2023-02-20T12:54:37.435Z,98624.34
2023-02-20T12:57:42.463Z,98627.00
2023-02-20T13:00:46.423Z,98621.69
2023-02-20T13:03:52.192Z,98631.38
2023-02-20T13:07:00.619Z,98618.13
2023-02-20T13:10:04.755Z,98614.63
2023-02-20T13:13:10.637Z,98609.22
2023-02-20T13:16:16.704Z,98625.97
2023-02-20T13:19:22.256Z,98626.84
2023-02-20T13:22:23.919Z,98618.94
2023-02-20T13:25:35.075Z,98613.59
2023-02-20T13:28:48.292Z,98608.25
2023-02-20T13:31:50.893Z,98602.88
2023-02-20T13:34:52.805Z,98616.13
2023-02-20T13:37:55.554Z,98605.50
2023-02-20T13:41:04.196Z,98594.88
2023-02-20T13:44:20.689Z,98593.09
2023-02-20T13:47:46.281Z,98604.50
2023-02-20T13:50:49.215Z,98615.91
2023-02-20T13:53:51.780Z,98611.44
2023-02-20T13:56:59.743Z,98582.31
2023-02-20T14:00:01.965Z,98609.59
2023-02-20T14:03:10.212Z,98599.00
2023-02-20T14:06:14.844Z,98605.16
2023-02-20T14:09:18.920Z,98604.31
2023-02-20T14:12:20.553Z,98607.75
2023-02-20T14:15:24.519Z,98602.47
2023-02-20T14:18:27.801Z,98598.84
2023-02-20T14:21:31.191Z,98604.16
2023-02-20T14:24:32.871Z,98597.13
2023-02-20T14:27:34.575Z,98582.16
2023-02-20T14:30:36.266Z,98582.16
2023-02-20T14:33:37.987Z,98578.63
2023-02-20T14:36:54.530Z,98569.78
2023-02-20T14:40:02.055Z,98576.84
2023-02-20T14:43:05.113Z,98578.69
2023-02-20T14:46:07.715Z,98590.13
2023-02-20T14:49:10.531Z,98582.25
2023-02-20T14:52:14.090Z,98569.00
2023-02-20T14:55:17.959Z,98591.06
2023-02-20T14:58:23.378Z,98574.31
2023-02-20T15:01:39.029Z,98577.88
2023-02-20T15:04:46.935Z,98575.28
2023-02-20T15:07:48.527Z,98577.94
2023-02-20T15:10:52.810Z,98565.50
2023-02-20T15:13:55.393Z,98581.41
2023-02-20T15:17:07.059Z,98568.16
2023-02-20T15:20:16.525Z,98569.88
2023-02-20T15:23:23.532Z,98575.16
2023-02-20T15:26:31.609Z,98581.34
2023-02-20T15:29:33.209Z,98574.31
2023-02-20T15:32:35.618Z,98574.25
2023-02-20T15:35:37.215Z,98568.09
2023-02-20T15:38:39.084Z,98567.22
2023-02-20T15:41:42.497Z,98572.47
2023-02-20T15:44:44.173Z,98573.28
2023-02-20T15:47:45.867Z,98573.28
2023-02-20T15:50:47.622Z,98570.59
2023-02-20T15:53:51.335Z,98575.03
2023-02-20T15:56:54.397Z,98570.63
2023-02-20T15:59:56.181Z,98560.91
2023-02-20T16:02:58.369Z,98571.50
2023-02-20T16:06:00.361Z,98564.44
2023-02-20T16:09:01.931Z,98582.91
2023-02-20T16:12:05.333Z,98576.81
2023-02-20T16:15:07.521Z,98584.75
2023-02-20T16:18:09.570Z,98576.84
2023-02-20T16:21:13.200Z,98584.78
2023-02-20T16:24:15.192Z,98587.50
2023-02-20T16:27:24.387Z,98599.88
2023-02-20T16:30:33.324Z,98594.56
2023-02-20T16:33:35.954Z,98590.19
2023-02-20T16:36:37.790Z,98587.53
2023-02-20T16:39:39.600Z,98592.91
2023-02-20T16:42:42.886Z,98594.69
2023-02-20T16:45:44.819Z,98586.75
2023-02-20T16:48:49.396Z,98592.09
2023-02-20T16:51:59.284Z,98589.44
2023-02-20T16:55:02.830Z,98597.44
2023-02-20T16:58:05.976Z,98596.56
2023-02-20T17:01:08.716Z,98587.69
2023-02-20T17:04:13.554Z,98580.66
2023-02-20T17:07:15.639Z,98583.38
2023-02-20T17:10:17.487Z,98601.84
2023-02-20T17:13:20.899Z,98600.13
2023-02-20T17:16:31.425Z,98585.09
2023-02-20T17:19:33.882Z,98598.28
2023-02-20T17:22:35.825Z,98604.50
2023-02-20T17:25:37.577Z,98598.34
2023-02-20T17:28:40.686Z,98589.53
2023-02-20T17:31:42.404Z,98600.13
2023-02-20T17:34:44.495Z,98586.88
2023-02-20T17:37:46.111Z,98607.16
2023-02-20T17:40:47.850Z,98601.81
2023-02-20T17:43:51.217Z,98601.75
2023-02-20T17:46:53.051Z,98592.03
2023-02-20T17:49:56.063Z,98614.09
2023-02-20T17:52:57.910Z,98599.06
2023-02-20T17:55:59.520Z,98609.59
2023-02-20T17:59:02.748Z,98615.75
2023-02-20T18:02:04.314Z,98613.13
2023-02-20T18:05:06.297Z,98618.38
2023-02-20T18:08:08.071Z,98608.63
2023-02-20T18:11:09.657Z,98604.16
2023-02-20T18:14:13.788Z,98613.75
2023-02-20T18:17:15.686Z,98623.47
2023-02-20T18:20:17.475Z,98619.91
2023-02-20T18:23:19.058Z,98609.31
2023-02-20T18:26:21.093Z,98612.81
2023-02-20T18:29:25.402Z,98610.16
2023-02-20T18:32:27.185Z,98611.84
2023-02-20T18:35:29.720Z,98628.59
2023-02-20T18:38:31.531Z,98605.63
2023-02-20T18:41:34.532Z,98610.94
2023-02-20T18:44:37.552Z,98603.81
2023-02-20T18:47:39.108Z,98609.16
2023-02-20T18:50:40.864Z,98599.41
2023-02-20T18:53:44.646Z,98615.16
2023-02-20T18:56:46.754Z,98615.22
2023-02-20T18:59:49.826Z,98611.66
2023-02-20T19:02:52.508Z,98606.34
2023-02-20T19:05:54.174Z,98607.22
2023-02-20T19:08:56.059Z,98602.81
2023-02-20T19:11:57.772Z,98609.88
2023-02-20T19:15:06.220Z,98608.13
2023-02-20T19:18:08.045Z,98602.84
2023-02-20T19:21:10.265Z,98607.22
2023-02-20T19:24:12.562Z,98606.34
2023-02-20T19:27:14.217Z,98600.19
2023-02-20T19:30:17.691Z,98599.28
2023-02-20T19:33:19.445Z,98602.81
2023-02-20T19:36:21.138Z,98563.16
2023-02-20T19:39:24.286Z,98585.25
2023-02-20T19:42:28.538Z,98574.72
2023-02-20T19:45:31.977Z,98573.78
2023-02-20T19:48:33.831Z,98578.19
2023-02-20T19:51:37.422Z,98579.00
2023-02-20T19:54:40.747Z,98579.00
2023-02-20T19:57:42.373Z,98581.69
2023-02-20T20:00:45.367Z,98577.25
2023-02-20T20:03:47.297Z,98578.13
2023-02-20T20:06:49.495Z,98571.03
2023-02-20T20:09:50.995Z,98574.53
2023-02-20T20:12:52.837Z,98559.53
2023-02-20T20:15:57.051Z,98565.72
2023-02-20T20:18:58.569Z,98559.53
2023-02-20T20:22:00.276Z,98546.28
2023-02-20T20:25:02.267Z,98562.97
2023-02-20T20:28:09.776Z,98560.28
2023-02-20T20:31:13.207Z,98565.63
2023-02-20T20:34:14.860Z,98560.28
2023-02-20T20:37:16.495Z,98571.72
2023-02-20T20:40:18.342Z,98560.28
2023-02-20T20:43:19.999Z,98563.78
2023-02-20T20:46:23.110Z,98555.88
2023-02-20T20:49:24.646Z,98556.75
2023-02-20T20:52:26.896Z,98547.78
2023-02-20T20:55:28.567Z,98558.38
2023-02-20T20:58:30.529Z,98555.72
2023-02-20T21:01:33.500Z,98562.75
2023-02-20T21:04:35.611Z,98561.00
2023-02-20T21:07:37.327Z,98560.97
2023-02-20T21:10:39.289Z,98546.78
2023-02-20T21:13:40.897Z,98552.97
2023-02-20T21:16:43.879Z,98546.78
2023-02-20T21:19:46.442Z,98537.06
2023-02-20T21:22:49.146Z,98530.84
2023-02-20T21:25:50.918Z,98526.34
2023-02-20T21:28:54.963Z,98528.97
2023-02-20T21:31:58.310Z,98527.16
2023-02-20T21:35:00.157Z,98524.53
2023-02-20T21:38:02.034Z,98537.69
2023-02-20T21:41:04.492Z,98543.88
2023-02-20T21:44:24.587Z,98535.91
2023-02-20T21:47:28.057Z,98527.97
2023-02-20T21:50:29.607Z,98540.25
2023-02-20T21:53:31.213Z,98551.72
2023-02-20T21:56:33.406Z,98550.75
2023-02-20T21:59:35.211Z,98551.63
2023-02-20T22:02:38.296Z,98542.78
2023-02-20T22:05:40.266Z,98549.84
2023-02-20T22:09:00.933Z,98548.91
2023-02-20T22:12:21.296Z,98541.81
2023-02-20T22:15:41.605Z,98532.09
2023-02-20T22:19:03.378Z,98536.50
2023-02-20T22:22:23.834Z,98537.38
2023-02-20T22:25:44.371Z,98538.25
2023-02-20T22:29:05.200Z,98539.97
2023-02-20T22:32:26.950Z,98532.81
2023-02-20T22:35:49.167Z,98542.47
2023-02-20T22:39:10.385Z,98561.88
2023-02-20T22:42:35.111Z,98554.75
2023-02-20T22:45:55.877Z,98561.84
2023-02-20T22:49:16.146Z,98561.84
2023-02-20T22:52:39.735Z,98564.44
2023-02-20T22:56:00.147Z,98561.75
2023-02-20T22:59:20.562Z,98555.50
2023-02-20T23:02:40.892Z,98560.78
2023-02-20T23:06:15.245Z,98552.03
2023-02-20T23:09:38.599Z,98559.06
2023-02-20T23:12:58.659Z,98553.69
2023-02-20T23:16:18.953Z,98554.56
2023-02-20T23:19:39.322Z,98545.69
2023-02-20T23:23:00.539Z,98549.16
2023-02-20T23:26:25.145Z,98551.81
2023-02-20T23:29:46.085Z,98549.09
2023-02-20T23:33:06.285Z,98548.19
2023-02-20T23:36:27.214Z,98548.16
2023-02-20T23:39:48.638Z,98537.56
2023-02-20T23:43:11.795Z,98549.03
2023-02-20T23:46:32.595Z,98545.41
2023-02-20T23:49:52.860Z,98540.16
2023-02-20T23:53:13.265Z,98550.72
2023-02-20T23:56:33.712Z,98534.81
2023-02-20T23:59:56.772Z,98533.78
